<?xml version="1.0" encoding="UTF-8" standalone="no" ?>
<gpx xmlns="http://www.topografix.com/GPX/1/1" xmlns:xsi="http://www.w3.org/2001/XMLSchema-instance" xsi:schemaLocation="http://www.topografix.com/GPX/1/1 http://www.topografix.com/GPX/1/1/gpx.xsd" version="1.1" creator="VisuGPX - https://www.visugpx.com">
  <metadata>
    <name>14: Moulès - Tournadous</name>
    <desc><![CDATA[14: Moulès - Tournadous]]></desc>
  </metadata>
  <wpt lat="43.83631" lon="3.12279">
    <ele>520</ele>
    <name><![CDATA[Accueil PdC Centre]]></name>
  </wpt>
  <wpt lat="43.83694" lon="3.12356">
    <ele>530.1</ele>
    <name><![CDATA[PCA]]></name>
  </wpt>
  <wpt lat="43.83874" lon="3.12406">
    <ele>535.1</ele>
    <name><![CDATA[STX]]></name>
  </wpt>
  <wpt lat="43.84118" lon="3.12222">
    <ele>585.1</ele>
    <name><![CDATA[TNA]]></name>
  </wpt>
  <wpt lat="43.84347" lon="3.1212">
    <ele>625</ele>
    <name><![CDATA[TNB]]></name>
  </wpt>
  <wpt lat="43.84501" lon="3.12207">
    <ele>660.1</ele>
    <name><![CDATA[HSM]]></name>
  </wpt>
  <wpt lat="43.84756" lon="3.12169">
    <ele>655</ele>
    <name><![CDATA[TNC]]></name>
  </wpt>
  <wpt lat="43.84815" lon="3.12111">
    <ele>655</ele>
    <name><![CDATA[RDA]]></name>
  </wpt>
  <wpt lat="43.85106" lon="3.1153">
    <ele>644.9</ele>
    <name><![CDATA[TUN]]></name>
  </wpt>
  <wpt lat="43.85392" lon="3.10742">
    <ele>630</ele>
    <name><![CDATA[CTR]]></name>
  </wpt>
  <wpt lat="43.85688" lon="3.10844">
    <ele>619.9</ele>
    <name><![CDATA[BDR]]></name>
  </wpt>
  <wpt lat="43.85942" lon="3.10476">
    <ele>594.9</ele>
    <name><![CDATA[BRQ]]></name>
  </wpt>
  <wpt lat="43.85898" lon="3.10421">
    <ele>605</ele>
    <name><![CDATA[SMA]]></name>
  </wpt>
  <wpt lat="43.85456" lon="3.09767">
    <ele>669.9</ele>
    <name><![CDATA[SMB]]></name>
  </wpt>
  <wpt lat="43.85231" lon="3.09778">
    <ele>690.1</ele>
    <name><![CDATA[SMC]]></name>
  </wpt>
  <wpt lat="43.85166" lon="3.09951">
    <ele>705</ele>
    <name><![CDATA[SMD]]></name>
  </wpt>
  <wpt lat="43.85019" lon="3.09928">
    <ele>694.9</ele>
    <name><![CDATA[LAV]]></name>
  </wpt>
  <wpt lat="43.84924" lon="3.10105">
    <ele>719.9</ele>
    <name><![CDATA[PAB]]></name>
  </wpt>
  <wpt lat="43.84817" lon="3.10823">
    <ele>687.9</ele>
    <name><![CDATA[PFA]]></name>
  </wpt>
  <wpt lat="43.84778" lon="3.10642">
    <ele>690.1</ele>
    <name><![CDATA[BPF]]></name>
  </wpt>
  <wpt lat="43.84607" lon="3.10366">
    <ele>690.1</ele>
    <name><![CDATA[PFB]]></name>
  </wpt>
  <wpt lat="43.84424" lon="3.10006">
    <ele>669.9</ele>
    <name><![CDATA[VVA]]></name>
  </wpt>
  <wpt lat="43.8456" lon="3.10048">
    <ele>644.9</ele>
    <name><![CDATA[VVB]]></name>
  </wpt>
  <wpt lat="43.84604" lon="3.09852">
    <ele>630</ele>
    <name><![CDATA[VVC]]></name>
  </wpt>
  <wpt lat="43.84504" lon="3.09697">
    <ele>610.1</ele>
    <name><![CDATA[VVD]]></name>
  </wpt>
  <wpt lat="43.84553" lon="3.09358">
    <ele>580</ele>
    <name><![CDATA[VRC]]></name>
  </wpt>
  <wpt lat="43.8444" lon="3.0968">
    <ele>560.1</ele>
    <name><![CDATA[VRB]]></name>
  </wpt>
  <wpt lat="43.84143" lon="3.10122">
    <ele>555</ele>
    <name><![CDATA[VRA]]></name>
  </wpt>
  <wpt lat="43.84037" lon="3.10487">
    <ele>550</ele>
    <name><![CDATA[MDF]]></name>
  </wpt>
  <wpt lat="43.83852" lon="3.10886">
    <ele>545</ele>
    <name><![CDATA[SBA]]></name>
  </wpt>
  <wpt lat="43.83657" lon="3.11798">
    <ele>530.1</ele>
    <name><![CDATA[PCD]]></name>
  </wpt>
  <trk>
    <name><![CDATA[RoTra 14 PdC]]></name>
    <trkseg>
      <trkpt lat="43.83657" lon="3.11796">
        <ele>535</ele>
        <time>2010-01-01T00:00:00Z</time>
      </trkpt>
      <trkpt lat="43.83657" lon="3.11737">
        <ele>535</ele>
        <time>2010-01-01T00:01:06Z</time>
      </trkpt>
      <trkpt lat="43.83653" lon="3.11697">
        <ele>538</ele>
        <time>2010-01-01T00:01:52Z</time>
      </trkpt>
      <trkpt lat="43.83668" lon="3.11564">
        <ele>543</ele>
        <time>2010-01-01T00:04:23Z</time>
      </trkpt>
      <trkpt lat="43.83684" lon="3.11478">
        <ele>549</ele>
        <time>2010-01-01T00:06:02Z</time>
      </trkpt>
      <trkpt lat="43.83773" lon="3.11139">
        <ele>558</ele>
        <time>2010-01-01T00:12:48Z</time>
      </trkpt>
      <trkpt lat="43.83772" lon="3.11082">
        <ele>561</ele>
        <time>2010-01-01T00:13:52Z</time>
      </trkpt>
      <trkpt lat="43.83821" lon="3.10925">
        <ele>554</ele>
        <time>2010-01-01T00:17:04Z</time>
      </trkpt>
      <trkpt lat="43.83851" lon="3.10883">
        <ele>555</ele>
        <time>2010-01-01T00:18:10Z</time>
      </trkpt>
      <trkpt lat="43.83853" lon="3.10881">
        <ele>555</ele>
        <time>2010-01-01T00:18:14Z</time>
      </trkpt>
      <trkpt lat="43.83897" lon="3.10809">
        <ele>556</ele>
        <time>2010-01-01T00:19:59Z</time>
      </trkpt>
      <trkpt lat="43.83932" lon="3.10747">
        <ele>558</ele>
        <time>2010-01-01T00:21:29Z</time>
      </trkpt>
      <trkpt lat="43.8405" lon="3.10519">
        <ele>564</ele>
        <time>2010-01-01T00:26:44Z</time>
      </trkpt>
      <trkpt lat="43.84048" lon="3.10503">
        <ele>563</ele>
        <time>2010-01-01T00:27:02Z</time>
      </trkpt>
      <trkpt lat="43.84038" lon="3.10488">
        <ele>564</ele>
        <time>2010-01-01T00:27:25Z</time>
      </trkpt>
      <trkpt lat="43.84037" lon="3.10486">
        <ele>564</ele>
        <time>2010-01-01T00:27:27Z</time>
      </trkpt>
      <trkpt lat="43.84042" lon="3.1046">
        <ele>563</ele>
        <time>2010-01-01T00:27:58Z</time>
      </trkpt>
      <trkpt lat="43.8406" lon="3.10424">
        <ele>561</ele>
        <time>2010-01-01T00:28:47Z</time>
      </trkpt>
      <trkpt lat="43.84085" lon="3.10353">
        <ele>563</ele>
        <time>2010-01-01T00:30:16Z</time>
      </trkpt>
      <trkpt lat="43.84134" lon="3.1015">
        <ele>575</ele>
        <time>2010-01-01T00:34:16Z</time>
      </trkpt>
      <trkpt lat="43.84148" lon="3.10129">
        <ele>573</ele>
        <time>2010-01-01T00:34:48Z</time>
      </trkpt>
      <trkpt lat="43.84149" lon="3.10122">
        <ele>573</ele>
        <time>2010-01-01T00:34:55Z</time>
      </trkpt>
      <trkpt lat="43.84197" lon="3.09965">
        <ele>579</ele>
        <time>2010-01-01T00:38:07Z</time>
      </trkpt>
      <trkpt lat="43.84312" lon="3.0982">
        <ele>577</ele>
        <time>2010-01-01T00:42:10Z</time>
      </trkpt>
      <trkpt lat="43.84407" lon="3.09739">
        <ele>578</ele>
        <time>2010-01-01T00:45:03Z</time>
      </trkpt>
      <trkpt lat="43.84438" lon="3.09683">
        <ele>584</ele>
        <time>2010-01-01T00:46:22Z</time>
      </trkpt>
      <trkpt lat="43.84439" lon="3.0968">
        <ele>584</ele>
        <time>2010-01-01T00:46:27Z</time>
      </trkpt>
      <trkpt lat="43.84488" lon="3.09569">
        <ele>590</ele>
        <time>2010-01-01T00:48:52Z</time>
      </trkpt>
      <trkpt lat="43.84545" lon="3.09372">
        <ele>595</ele>
        <time>2010-01-01T00:52:51Z</time>
      </trkpt>
      <trkpt lat="43.84552" lon="3.09359">
        <ele>596</ele>
        <time>2010-01-01T00:53:09Z</time>
      </trkpt>
      <trkpt lat="43.84553" lon="3.09358">
        <ele>596</ele>
        <time>2010-01-01T00:53:11Z</time>
      </trkpt>
      <trkpt lat="43.84561" lon="3.09351">
        <ele>597</ele>
        <time>2010-01-01T00:53:25Z</time>
      </trkpt>
      <trkpt lat="43.84566" lon="3.09375">
        <ele>597</ele>
        <time>2010-01-01T00:53:53Z</time>
      </trkpt>
      <trkpt lat="43.84559" lon="3.09409">
        <ele>596</ele>
        <time>2010-01-01T00:54:34Z</time>
      </trkpt>
      <trkpt lat="43.84556" lon="3.09459">
        <ele>601</ele>
        <time>2010-01-01T00:55:31Z</time>
      </trkpt>
      <trkpt lat="43.84544" lon="3.09537">
        <ele>607</ele>
        <time>2010-01-01T00:56:59Z</time>
      </trkpt>
      <trkpt lat="43.84505" lon="3.09688">
        <ele>604</ele>
        <time>2010-01-01T00:59:59Z</time>
      </trkpt>
      <trkpt lat="43.84507" lon="3.09714">
        <ele>605</ele>
        <time>2010-01-01T01:00:29Z</time>
      </trkpt>
      <trkpt lat="43.84525" lon="3.0975">
        <ele>616</ele>
        <time>2010-01-01T01:01:19Z</time>
      </trkpt>
      <trkpt lat="43.84554" lon="3.09819">
        <ele>622</ele>
        <time>2010-01-01T01:02:48Z</time>
      </trkpt>
      <trkpt lat="43.84564" lon="3.09834">
        <ele>624</ele>
        <time>2010-01-01T01:03:12Z</time>
      </trkpt>
      <trkpt lat="43.84597" lon="3.09838">
        <ele>635</ele>
        <time>2010-01-01T01:04:03Z</time>
      </trkpt>
      <trkpt lat="43.84604" lon="3.09844">
        <ele>637</ele>
        <time>2010-01-01T01:04:16Z</time>
      </trkpt>
      <trkpt lat="43.84604" lon="3.09847">
        <ele>637</ele>
        <time>2010-01-01T01:04:19Z</time>
      </trkpt>
      <trkpt lat="43.84602" lon="3.09874">
        <ele>635</ele>
        <time>2010-01-01T01:04:49Z</time>
      </trkpt>
      <trkpt lat="43.84607" lon="3.09905">
        <ele>635</ele>
        <time>2010-01-01T01:05:24Z</time>
      </trkpt>
      <trkpt lat="43.84628" lon="3.09934">
        <ele>646</ele>
        <time>2010-01-01T01:06:11Z</time>
      </trkpt>
      <trkpt lat="43.84632" lon="3.09949">
        <ele>650</ele>
        <time>2010-01-01T01:06:29Z</time>
      </trkpt>
      <trkpt lat="43.84615" lon="3.09999">
        <ele>651</ele>
        <time>2010-01-01T01:07:31Z</time>
      </trkpt>
      <trkpt lat="43.84597" lon="3.10029">
        <ele>652</ele>
        <time>2010-01-01T01:08:15Z</time>
      </trkpt>
      <trkpt lat="43.84577" lon="3.10046">
        <ele>653</ele>
        <time>2010-01-01T01:08:51Z</time>
      </trkpt>
      <trkpt lat="43.84564" lon="3.10053">
        <ele>654</ele>
        <time>2010-01-01T01:09:13Z</time>
      </trkpt>
      <trkpt lat="43.84563" lon="3.10052">
        <ele>654</ele>
        <time>2010-01-01T01:09:14Z</time>
      </trkpt>
      <trkpt lat="43.84536" lon="3.1003">
        <ele>650</ele>
        <time>2010-01-01T01:10:03Z</time>
      </trkpt>
      <trkpt lat="43.84504" lon="3.10013">
        <ele>649</ele>
        <time>2010-01-01T01:10:57Z</time>
      </trkpt>
      <trkpt lat="43.84437" lon="3.09986">
        <ele>644</ele>
        <time>2010-01-01T01:12:45Z</time>
      </trkpt>
      <trkpt lat="43.84428" lon="3.0999">
        <ele>645</ele>
        <time>2010-01-01T01:13:01Z</time>
      </trkpt>
      <trkpt lat="43.84424" lon="3.09997">
        <ele>647</ele>
        <time>2010-01-01T01:13:10Z</time>
      </trkpt>
      <trkpt lat="43.84423" lon="3.1">
        <ele>647</ele>
        <time>2010-01-01T01:13:13Z</time>
      </trkpt>
      <trkpt lat="43.84424" lon="3.10009">
        <ele>647</ele>
        <time>2010-01-01T01:13:24Z</time>
      </trkpt>
      <trkpt lat="43.84463" lon="3.10041">
        <ele>650</ele>
        <time>2010-01-01T01:14:35Z</time>
      </trkpt>
      <trkpt lat="43.84479" lon="3.10057">
        <ele>653</ele>
        <time>2010-01-01T01:15:05Z</time>
      </trkpt>
      <trkpt lat="43.84505" lon="3.10099">
        <ele>661</ele>
        <time>2010-01-01T01:16:07Z</time>
      </trkpt>
      <trkpt lat="43.8453" lon="3.10158">
        <ele>670</ele>
        <time>2010-01-01T01:17:24Z</time>
      </trkpt>
      <trkpt lat="43.84542" lon="3.10195">
        <ele>677</ele>
        <time>2010-01-01T01:18:10Z</time>
      </trkpt>
      <trkpt lat="43.84554" lon="3.10223">
        <ele>681</ele>
        <time>2010-01-01T01:18:46Z</time>
      </trkpt>
      <trkpt lat="43.84574" lon="3.10255">
        <ele>687</ele>
        <time>2010-01-01T01:19:34Z</time>
      </trkpt>
      <trkpt lat="43.84577" lon="3.10268">
        <ele>688</ele>
        <time>2010-01-01T01:19:49Z</time>
      </trkpt>
      <trkpt lat="43.84564" lon="3.10305">
        <ele>689</ele>
        <time>2010-01-01T01:20:36Z</time>
      </trkpt>
      <trkpt lat="43.84568" lon="3.1032">
        <ele>690</ele>
        <time>2010-01-01T01:20:55Z</time>
      </trkpt>
      <trkpt lat="43.84601" lon="3.10356">
        <ele>692</ele>
        <time>2010-01-01T01:22:00Z</time>
      </trkpt>
      <trkpt lat="43.84606" lon="3.10366">
        <ele>692</ele>
        <time>2010-01-01T01:22:13Z</time>
      </trkpt>
      <trkpt lat="43.84608" lon="3.10368">
        <ele>692</ele>
        <time>2010-01-01T01:22:17Z</time>
      </trkpt>
      <trkpt lat="43.84637" lon="3.10397">
        <ele>692</ele>
        <time>2010-01-01T01:23:13Z</time>
      </trkpt>
      <trkpt lat="43.84679" lon="3.10449">
        <ele>691</ele>
        <time>2010-01-01T01:24:40Z</time>
      </trkpt>
      <trkpt lat="43.84717" lon="3.10502">
        <ele>689</ele>
        <time>2010-01-01T01:26:04Z</time>
      </trkpt>
      <trkpt lat="43.84738" lon="3.1054">
        <ele>688</ele>
        <time>2010-01-01T01:26:59Z</time>
      </trkpt>
      <trkpt lat="43.84775" lon="3.10631">
        <ele>687</ele>
        <time>2010-01-01T01:28:56Z</time>
      </trkpt>
      <trkpt lat="43.84776" lon="3.10633">
        <ele>687</ele>
        <time>2010-01-01T01:28:58Z</time>
      </trkpt>
      <trkpt lat="43.84802" lon="3.10693">
        <ele>687</ele>
        <time>2010-01-01T01:30:17Z</time>
      </trkpt>
      <trkpt lat="43.84809" lon="3.10741">
        <ele>687</ele>
        <time>2010-01-01T01:31:12Z</time>
      </trkpt>
      <trkpt lat="43.84817" lon="3.10823">
        <ele>687</ele>
        <time>2010-01-01T01:32:45Z</time>
      </trkpt>
      <trkpt lat="43.84819" lon="3.10824">
        <ele>687</ele>
        <time>2010-01-01T01:32:48Z</time>
      </trkpt>
      <trkpt lat="43.84862" lon="3.10692">
        <ele>692</ele>
        <time>2010-01-01T01:35:31Z</time>
      </trkpt>
      <trkpt lat="43.84863" lon="3.10646">
        <ele>693</ele>
        <time>2010-01-01T01:36:22Z</time>
      </trkpt>
      <trkpt lat="43.84854" lon="3.10605">
        <ele>694</ele>
        <time>2010-01-01T01:37:11Z</time>
      </trkpt>
      <trkpt lat="43.84838" lon="3.1055">
        <ele>695</ele>
        <time>2010-01-01T01:38:17Z</time>
      </trkpt>
      <trkpt lat="43.84888" lon="3.10215">
        <ele>718</ele>
        <time>2010-01-01T01:44:41Z</time>
      </trkpt>
      <trkpt lat="43.84923" lon="3.10105">
        <ele>715</ele>
        <time>2010-01-01T01:46:57Z</time>
      </trkpt>
      <trkpt lat="43.84926" lon="3.10098">
        <ele>715</ele>
        <time>2010-01-01T01:47:05Z</time>
      </trkpt>
      <trkpt lat="43.84934" lon="3.10058">
        <ele>712</ele>
        <time>2010-01-01T01:47:52Z</time>
      </trkpt>
      <trkpt lat="43.84951" lon="3.09962">
        <ele>708</ele>
        <time>2010-01-01T01:49:44Z</time>
      </trkpt>
      <trkpt lat="43.84964" lon="3.0994">
        <ele>706</ele>
        <time>2010-01-01T01:50:15Z</time>
      </trkpt>
      <trkpt lat="43.84979" lon="3.0993">
        <ele>704</ele>
        <time>2010-01-01T01:50:42Z</time>
      </trkpt>
      <trkpt lat="43.85024" lon="3.09927">
        <ele>702</ele>
        <time>2010-01-01T01:51:51Z</time>
      </trkpt>
      <trkpt lat="43.85027" lon="3.09927">
        <ele>702</ele>
        <time>2010-01-01T01:51:56Z</time>
      </trkpt>
      <trkpt lat="43.85134" lon="3.09936">
        <ele>705</ele>
        <time>2010-01-01T01:54:43Z</time>
      </trkpt>
      <trkpt lat="43.85156" lon="3.09941">
        <ele>706</ele>
        <time>2010-01-01T01:55:18Z</time>
      </trkpt>
      <trkpt lat="43.85168" lon="3.09949">
        <ele>706</ele>
        <time>2010-01-01T01:55:38Z</time>
      </trkpt>
      <trkpt lat="43.85169" lon="3.09948">
        <ele>706</ele>
        <time>2010-01-01T01:55:40Z</time>
      </trkpt>
      <trkpt lat="43.85167" lon="3.09912">
        <ele>707</ele>
        <time>2010-01-01T01:56:21Z</time>
      </trkpt>
      <trkpt lat="43.85225" lon="3.09782">
        <ele>697</ele>
        <time>2010-01-01T01:59:13Z</time>
      </trkpt>
      <trkpt lat="43.85234" lon="3.09772">
        <ele>695</ele>
        <time>2010-01-01T01:59:30Z</time>
      </trkpt>
      <trkpt lat="43.85237" lon="3.0977">
        <ele>695</ele>
        <time>2010-01-01T01:59:36Z</time>
      </trkpt>
      <trkpt lat="43.85302" lon="3.09735">
        <ele>687</ele>
        <time>2010-01-01T02:01:24Z</time>
      </trkpt>
      <trkpt lat="43.85349" lon="3.0975">
        <ele>686</ele>
        <time>2010-01-01T02:02:40Z</time>
      </trkpt>
      <trkpt lat="43.85358" lon="3.09769">
        <ele>688</ele>
        <time>2010-01-01T02:03:06Z</time>
      </trkpt>
      <trkpt lat="43.85397" lon="3.09782">
        <ele>683</ele>
        <time>2010-01-01T02:04:08Z</time>
      </trkpt>
      <trkpt lat="43.85425" lon="3.09784">
        <ele>678</ele>
        <time>2010-01-01T02:04:51Z</time>
      </trkpt>
      <trkpt lat="43.85454" lon="3.09767">
        <ele>670</ele>
        <time>2010-01-01T02:05:42Z</time>
      </trkpt>
      <trkpt lat="43.85463" lon="3.09771">
        <ele>669</ele>
        <time>2010-01-01T02:05:57Z</time>
      </trkpt>
      <trkpt lat="43.85509" lon="3.09838">
        <ele>666</ele>
        <time>2010-01-01T02:07:39Z</time>
      </trkpt>
      <trkpt lat="43.85568" lon="3.09973">
        <ele>658</ele>
        <time>2010-01-01T02:10:37Z</time>
      </trkpt>
      <trkpt lat="43.85622" lon="3.10063">
        <ele>652</ele>
        <time>2010-01-01T02:12:48Z</time>
      </trkpt>
      <trkpt lat="43.85684" lon="3.10104">
        <ele>643</ele>
        <time>2010-01-01T02:14:35Z</time>
      </trkpt>
      <trkpt lat="43.85703" lon="3.10105">
        <ele>638</ele>
        <time>2010-01-01T02:15:05Z</time>
      </trkpt>
      <trkpt lat="43.85741" lon="3.10139">
        <ele>632</ele>
        <time>2010-01-01T02:16:16Z</time>
      </trkpt>
      <trkpt lat="43.85795" lon="3.10238">
        <ele>629</ele>
        <time>2010-01-01T02:18:35Z</time>
      </trkpt>
      <trkpt lat="43.85823" lon="3.10314">
        <ele>624</ele>
        <time>2010-01-01T02:20:10Z</time>
      </trkpt>
      <trkpt lat="43.85871" lon="3.10373">
        <ele>616</ele>
        <time>2010-01-01T02:21:51Z</time>
      </trkpt>
      <trkpt lat="43.85889" lon="3.10415">
        <ele>613</ele>
        <time>2010-01-01T02:22:46Z</time>
      </trkpt>
      <trkpt lat="43.85903" lon="3.10427">
        <ele>610</ele>
        <time>2010-01-01T02:23:12Z</time>
      </trkpt>
      <trkpt lat="43.85903" lon="3.10426">
        <ele>610</ele>
        <time>2010-01-01T02:23:14Z</time>
      </trkpt>
      <trkpt lat="43.8594" lon="3.10472">
        <ele>602</ele>
        <time>2010-01-01T02:24:32Z</time>
      </trkpt>
      <trkpt lat="43.85941" lon="3.10474">
        <ele>602</ele>
        <time>2010-01-01T02:24:35Z</time>
      </trkpt>
      <trkpt lat="43.85934" lon="3.10503">
        <ele>604</ele>
        <time>2010-01-01T02:25:09Z</time>
      </trkpt>
      <trkpt lat="43.85936" lon="3.10541">
        <ele>602</ele>
        <time>2010-01-01T02:25:52Z</time>
      </trkpt>
      <trkpt lat="43.85922" lon="3.10574">
        <ele>606</ele>
        <time>2010-01-01T02:26:34Z</time>
      </trkpt>
      <trkpt lat="43.85919" lon="3.10618">
        <ele>605</ele>
        <time>2010-01-01T02:27:24Z</time>
      </trkpt>
      <trkpt lat="43.85884" lon="3.10637">
        <ele>613</ele>
        <time>2010-01-01T02:28:24Z</time>
      </trkpt>
      <trkpt lat="43.8583" lon="3.10703">
        <ele>619</ele>
        <time>2010-01-01T02:30:15Z</time>
      </trkpt>
      <trkpt lat="43.85782" lon="3.10753">
        <ele>624</ele>
        <time>2010-01-01T02:31:49Z</time>
      </trkpt>
      <trkpt lat="43.85741" lon="3.10826">
        <ele>619</ele>
        <time>2010-01-01T02:33:32Z</time>
      </trkpt>
      <trkpt lat="43.85692" lon="3.1084">
        <ele>623</ele>
        <time>2010-01-01T02:34:50Z</time>
      </trkpt>
      <trkpt lat="43.85687" lon="3.10841">
        <ele>623</ele>
        <time>2010-01-01T02:34:58Z</time>
      </trkpt>
      <trkpt lat="43.85604" lon="3.10829">
        <ele>626</ele>
        <time>2010-01-01T02:37:08Z</time>
      </trkpt>
      <trkpt lat="43.85565" lon="3.1078">
        <ele>631</ele>
        <time>2010-01-01T02:38:30Z</time>
      </trkpt>
      <trkpt lat="43.85525" lon="3.10753">
        <ele>631</ele>
        <time>2010-01-01T02:39:40Z</time>
      </trkpt>
      <trkpt lat="43.85398" lon="3.10742">
        <ele>628</ele>
        <time>2010-01-01T02:42:58Z</time>
      </trkpt>
      <trkpt lat="43.85387" lon="3.10741">
        <ele>629</ele>
        <time>2010-01-01T02:43:15Z</time>
      </trkpt>
      <trkpt lat="43.85361" lon="3.10745">
        <ele>628</ele>
        <time>2010-01-01T02:43:55Z</time>
      </trkpt>
      <trkpt lat="43.85342" lon="3.10736">
        <ele>630</ele>
        <time>2010-01-01T02:44:28Z</time>
      </trkpt>
      <trkpt lat="43.85303" lon="3.1068">
        <ele>642</ele>
        <time>2010-01-01T02:45:55Z</time>
      </trkpt>
      <trkpt lat="43.85289" lon="3.1067">
        <ele>645</ele>
        <time>2010-01-01T02:46:20Z</time>
      </trkpt>
      <trkpt lat="43.85281" lon="3.10673">
        <ele>646</ele>
        <time>2010-01-01T02:46:32Z</time>
      </trkpt>
      <trkpt lat="43.85275" lon="3.10683">
        <ele>646</ele>
        <time>2010-01-01T02:46:47Z</time>
      </trkpt>
      <trkpt lat="43.85275" lon="3.10733">
        <ele>644</ele>
        <time>2010-01-01T02:47:43Z</time>
      </trkpt>
      <trkpt lat="43.85269" lon="3.10817">
        <ele>639</ele>
        <time>2010-01-01T02:49:18Z</time>
      </trkpt>
      <trkpt lat="43.8525" lon="3.10979">
        <ele>630</ele>
        <time>2010-01-01T02:52:23Z</time>
      </trkpt>
      <trkpt lat="43.85242" lon="3.11003">
        <ele>628</ele>
        <time>2010-01-01T02:52:52Z</time>
      </trkpt>
      <trkpt lat="43.85229" lon="3.11018">
        <ele>625</ele>
        <time>2010-01-01T02:53:18Z</time>
      </trkpt>
      <trkpt lat="43.85186" lon="3.11026">
        <ele>631</ele>
        <time>2010-01-01T02:54:26Z</time>
      </trkpt>
      <trkpt lat="43.85149" lon="3.11025">
        <ele>636</ele>
        <time>2010-01-01T02:55:23Z</time>
      </trkpt>
      <trkpt lat="43.85096" lon="3.11001">
        <ele>646</ele>
        <time>2010-01-01T02:56:49Z</time>
      </trkpt>
      <trkpt lat="43.85084" lon="3.11005">
        <ele>646</ele>
        <time>2010-01-01T02:57:10Z</time>
      </trkpt>
      <trkpt lat="43.85079" lon="3.11022">
        <ele>646</ele>
        <time>2010-01-01T02:57:30Z</time>
      </trkpt>
      <trkpt lat="43.8508" lon="3.11145">
        <ele>639</ele>
        <time>2010-01-01T02:59:49Z</time>
      </trkpt>
      <trkpt lat="43.85075" lon="3.11207">
        <ele>637</ele>
        <time>2010-01-01T03:00:59Z</time>
      </trkpt>
      <trkpt lat="43.85063" lon="3.11246">
        <ele>637</ele>
        <time>2010-01-01T03:01:46Z</time>
      </trkpt>
      <trkpt lat="43.8504" lon="3.11276">
        <ele>638</ele>
        <time>2010-01-01T03:02:36Z</time>
      </trkpt>
      <trkpt lat="43.85018" lon="3.11297">
        <ele>640</ele>
        <time>2010-01-01T03:03:17Z</time>
      </trkpt>
      <trkpt lat="43.84996" lon="3.11306">
        <ele>643</ele>
        <time>2010-01-01T03:03:53Z</time>
      </trkpt>
      <trkpt lat="43.84964" lon="3.11295">
        <ele>650</ele>
        <time>2010-01-01T03:04:45Z</time>
      </trkpt>
      <trkpt lat="43.84955" lon="3.11298">
        <ele>650</ele>
        <time>2010-01-01T03:04:59Z</time>
      </trkpt>
      <trkpt lat="43.84945" lon="3.11311">
        <ele>650</ele>
        <time>2010-01-01T03:05:20Z</time>
      </trkpt>
      <trkpt lat="43.84949" lon="3.11356">
        <ele>647</ele>
        <time>2010-01-01T03:06:10Z</time>
      </trkpt>
      <trkpt lat="43.84943" lon="3.11379">
        <ele>648</ele>
        <time>2010-01-01T03:06:38Z</time>
      </trkpt>
      <trkpt lat="43.84938" lon="3.11397">
        <ele>649</ele>
        <time>2010-01-01T03:06:59Z</time>
      </trkpt>
      <trkpt lat="43.84949" lon="3.11416">
        <ele>647</ele>
        <time>2010-01-01T03:07:27Z</time>
      </trkpt>
      <trkpt lat="43.85013" lon="3.11452">
        <ele>644</ele>
        <time>2010-01-01T03:09:14Z</time>
      </trkpt>
      <trkpt lat="43.8509" lon="3.11501">
        <ele>645</ele>
        <time>2010-01-01T03:11:26Z</time>
      </trkpt>
      <trkpt lat="43.85101" lon="3.11513">
        <ele>643</ele>
        <time>2010-01-01T03:11:48Z</time>
      </trkpt>
      <trkpt lat="43.85102" lon="3.11517">
        <ele>643</ele>
        <time>2010-01-01T03:11:52Z</time>
      </trkpt>
      <trkpt lat="43.85108" lon="3.11533">
        <ele>643</ele>
        <time>2010-01-01T03:12:13Z</time>
      </trkpt>
      <trkpt lat="43.85111" lon="3.1158">
        <ele>646</ele>
        <time>2010-01-01T03:13:05Z</time>
      </trkpt>
      <trkpt lat="43.85097" lon="3.11633">
        <ele>648</ele>
        <time>2010-01-01T03:14:09Z</time>
      </trkpt>
      <trkpt lat="43.84925" lon="3.11968">
        <ele>655</ele>
        <time>2010-01-01T03:21:51Z</time>
      </trkpt>
      <trkpt lat="43.84864" lon="3.12051">
        <ele>656</ele>
        <time>2010-01-01T03:24:05Z</time>
      </trkpt>
      <trkpt lat="43.84815" lon="3.121">
        <ele>656</ele>
        <time>2010-01-01T03:25:39Z</time>
      </trkpt>
      <trkpt lat="43.84813" lon="3.12109">
        <ele>656</ele>
        <time>2010-01-01T03:25:50Z</time>
      </trkpt>
      <trkpt lat="43.84811" lon="3.12113">
        <ele>656</ele>
        <time>2010-01-01T03:25:55Z</time>
      </trkpt>
      <trkpt lat="43.84801" lon="3.12119">
        <ele>656</ele>
        <time>2010-01-01T03:26:12Z</time>
      </trkpt>
      <trkpt lat="43.84756" lon="3.12166">
        <ele>657</ele>
        <time>2010-01-01T03:27:39Z</time>
      </trkpt>
      <trkpt lat="43.84753" lon="3.12165">
        <ele>657</ele>
        <time>2010-01-01T03:27:44Z</time>
      </trkpt>
      <trkpt lat="43.84722" lon="3.12147">
        <ele>659</ele>
        <time>2010-01-01T03:28:38Z</time>
      </trkpt>
      <trkpt lat="43.84678" lon="3.12152">
        <ele>661</ele>
        <time>2010-01-01T03:29:47Z</time>
      </trkpt>
      <trkpt lat="43.84657" lon="3.12167">
        <ele>662</ele>
        <time>2010-01-01T03:30:22Z</time>
      </trkpt>
      <trkpt lat="43.84635" lon="3.12175">
        <ele>663</ele>
        <time>2010-01-01T03:30:58Z</time>
      </trkpt>
      <trkpt lat="43.84581" lon="3.12156">
        <ele>664</ele>
        <time>2010-01-01T03:32:24Z</time>
      </trkpt>
      <trkpt lat="43.84568" lon="3.12167">
        <ele>663</ele>
        <time>2010-01-01T03:32:49Z</time>
      </trkpt>
      <trkpt lat="43.84545" lon="3.12228">
        <ele>660</ele>
        <time>2010-01-01T03:34:06Z</time>
      </trkpt>
      <trkpt lat="43.84516" lon="3.1224">
        <ele>656</ele>
        <time>2010-01-01T03:34:53Z</time>
      </trkpt>
      <trkpt lat="43.84513" lon="3.12235">
        <ele>656</ele>
        <time>2010-01-01T03:35:01Z</time>
      </trkpt>
      <trkpt lat="43.84512" lon="3.12235">
        <ele>656</ele>
        <time>2010-01-01T03:35:02Z</time>
      </trkpt>
      <trkpt lat="43.84492" lon="3.12199">
        <ele>655</ele>
        <time>2010-01-01T03:35:53Z</time>
      </trkpt>
      <trkpt lat="43.84469" lon="3.12166">
        <ele>651</ele>
        <time>2010-01-01T03:36:44Z</time>
      </trkpt>
      <trkpt lat="43.84451" lon="3.1215">
        <ele>649</ele>
        <time>2010-01-01T03:37:17Z</time>
      </trkpt>
      <trkpt lat="43.84417" lon="3.12126">
        <ele>646</ele>
        <time>2010-01-01T03:38:16Z</time>
      </trkpt>
      <trkpt lat="43.84396" lon="3.12126">
        <ele>642</ele>
        <time>2010-01-01T03:38:49Z</time>
      </trkpt>
      <trkpt lat="43.84347" lon="3.12119">
        <ele>633</ele>
        <time>2010-01-01T03:40:07Z</time>
      </trkpt>
      <trkpt lat="43.84344" lon="3.12119">
        <ele>633</ele>
        <time>2010-01-01T03:40:10Z</time>
      </trkpt>
      <trkpt lat="43.84251" lon="3.12109">
        <ele>626</ele>
        <time>2010-01-01T03:42:36Z</time>
      </trkpt>
      <trkpt lat="43.8416" lon="3.12194">
        <ele>599</ele>
        <time>2010-01-01T03:45:27Z</time>
      </trkpt>
      <trkpt lat="43.84121" lon="3.12221">
        <ele>590</ele>
        <time>2010-01-01T03:46:35Z</time>
      </trkpt>
      <trkpt lat="43.84117" lon="3.12225">
        <ele>589</ele>
        <time>2010-01-01T03:46:42Z</time>
      </trkpt>
      <trkpt lat="43.84069" lon="3.12278">
        <ele>577</ele>
        <time>2010-01-01T03:48:18Z</time>
      </trkpt>
      <trkpt lat="43.84042" lon="3.12316">
        <ele>570</ele>
        <time>2010-01-01T03:49:18Z</time>
      </trkpt>
      <trkpt lat="43.84019" lon="3.12362">
        <ele>563</ele>
        <time>2010-01-01T03:50:20Z</time>
      </trkpt>
      <trkpt lat="43.83908" lon="3.12388">
        <ele>546</ele>
        <time>2010-01-01T03:53:15Z</time>
      </trkpt>
      <trkpt lat="43.83903" lon="3.12399">
        <ele>546</ele>
        <time>2010-01-01T03:53:31Z</time>
      </trkpt>
      <trkpt lat="43.83887" lon="3.12395">
        <ele>544</ele>
        <time>2010-01-01T03:53:56Z</time>
      </trkpt>
      <trkpt lat="43.83878" lon="3.124">
        <ele>543</ele>
        <time>2010-01-01T03:54:11Z</time>
      </trkpt>
      <trkpt lat="43.83876" lon="3.12399">
        <ele>543</ele>
        <time>2010-01-01T03:54:14Z</time>
      </trkpt>
      <trkpt lat="43.83845" lon="3.1238">
        <ele>539</ele>
        <time>2010-01-01T03:55:07Z</time>
      </trkpt>
      <trkpt lat="43.83828" lon="3.12349">
        <ele>534</ele>
        <time>2010-01-01T03:55:50Z</time>
      </trkpt>
      <trkpt lat="43.83818" lon="3.12321">
        <ele>536</ele>
        <time>2010-01-01T03:56:26Z</time>
      </trkpt>
      <trkpt lat="43.83807" lon="3.12322">
        <ele>535</ele>
        <time>2010-01-01T03:56:43Z</time>
      </trkpt>
      <trkpt lat="43.83795" lon="3.12334">
        <ele>533</ele>
        <time>2010-01-01T03:57:07Z</time>
      </trkpt>
      <trkpt lat="43.83734" lon="3.12362">
        <ele>532</ele>
        <time>2010-01-01T03:58:47Z</time>
      </trkpt>
      <trkpt lat="43.83695" lon="3.12355">
        <ele>527</ele>
        <time>2010-01-01T03:59:47Z</time>
      </trkpt>
    </trkseg>
  </trk>
</gpx>